sensor_id;sensor_type;location;lat;lon;timestamp;P1;durP1;ratioP1;P2;durP2;ratioP2
32641;SDS011;19323;56.072;9.698;2022-12-18T00:01:05;5.07;;;4.63;;
32641;SDS011;19323;56.072;9.698;2022-12-18T00:03:38;5.30;;;4.80;;
32641;SDS011;19323;56.072;9.698;2022-12-18T00:06:03;7.65;;;5.00;;
32641;SDS011;19323;56.072;9.698;2022-12-18T00:08:29;5.25;;;4.65;;
32641;SDS011;19323;56.072;9.698;2022-12-18T00:10:54;6.40;;;5.32;;
32641;SDS011;19323;56.072;9.698;2022-12-18T00:13:20;6.18;;;4.95;;
32641;SDS011;19323;56.072;9.698;2022-12-18T00:15:45;5.70;;;5.07;;
32641;SDS011;19323;56.072;9.698;2022-12-18T00:18:10;5.07;;;4.57;;
32641;SDS011;19323;56.072;9.698;2022-12-18T00:20:38;6.15;;;5.05;;
32641;SDS011;19323;56.072;9.698;2022-12-18T00:23:05;6.18;;;4.88;;
32641;SDS011;19323;56.072;9.698;2022-12-18T00:25:34;6.38;;;4.47;;
32641;SDS011;19323;56.072;9.698;2022-12-18T00:28:00;4.97;;;4.47;;
32641;SDS011;19323;56.072;9.698;2022-12-18T00:30:26;4.88;;;4.35;;
32641;SDS011;19323;56.072;9.698;2022-12-18T00:32:52;6.93;;;5.45;;
32641;SDS011;19323;56.072;9.698;2022-12-18T00:35:17;5.47;;;4.93;;
32641;SDS011;19323;56.072;9.698;2022-12-18T00:37:42;6.28;;;4.00;;
32641;SDS011;19323;56.072;9.698;2022-12-18T00:40:08;5.03;;;4.50;;
32641;SDS011;19323;56.072;9.698;2022-12-18T00:42:37;4.85;;;4.28;;
32641;SDS011;19323;56.072;9.698;2022-12-18T00:45:24;5.38;;;4.00;;
32641;SDS011;19323;56.072;9.698;2022-12-18T00:47:54;5.75;;;4.15;;
32641;SDS011;19323;56.072;9.698;2022-12-18T00:50:21;8.10;;;5.15;;
32641;SDS011;19323;56.072;9.698;2022-12-18T00:52:47;5.70;;;4.32;;
32641;SDS011;19323;56.072;9.698;2022-12-18T00:55:12;5.32;;;4.20;;
32641;SDS011;19323;56.072;9.698;2022-12-18T00:57:38;6.97;;;4.32;;
32641;SDS011;19323;56.072;9.698;2022-12-18T01:00:04;6.20;;;4.90;;
32641;SDS011;19323;56.072;9.698;2022-12-18T01:02:31;8.15;;;4.60;;
32641;SDS011;19323;56.072;9.698;2022-12-18T01:04:56;4.25;;;3.85;;
32641;SDS011;19323;56.072;9.698;2022-12-18T01:07:21;5.40;;;4.32;;
32641;SDS011;19323;56.072;9.698;2022-12-18T01:09:47;5.55;;;4.57;;
32641;SDS011;19323;56.072;9.698;2022-12-18T01:12:12;5.50;;;5.00;;
32641;SDS011;19323;56.072;9.698;2022-12-18T01:14:37;5.07;;;4.57;;
32641;SDS011;19323;56.072;9.698;2022-12-18T01:17:03;5.80;;;3.75;;
32641;SDS011;19323;56.072;9.698;2022-12-18T01:19:28;5.10;;;4.38;;
32641;SDS011;19323;56.072;9.698;2022-12-18T01:21:54;4.07;;;3.72;;
32641;SDS011;19323;56.072;9.698;2022-12-18T01:24:19;5.03;;;3.95;;
32641;SDS011;19323;56.072;9.698;2022-12-18T01:26:44;4.75;;;4.00;;
32641;SDS011;19323;56.072;9.698;2022-12-18T01:29:10;4.32;;;3.75;;
32641;SDS011;19323;56.072;9.698;2022-12-18T01:31:35;7.57;;;4.18;;
32641;SDS011;19323;56.072;9.698;2022-12-18T01:34:00;4.82;;;3.60;;
32641;SDS011;19323;56.072;9.698;2022-12-18T01:36:28;3.95;;;3.55;;
32641;SDS011;19323;56.072;9.698;2022-12-18T01:39:03;3.75;;;3.38;;
32641;SDS011;19323;56.072;9.698;2022-12-18T01:41:30;3.55;;;3.25;;
32641;SDS011;19323;56.072;9.698;2022-12-18T01:47:27;5.68;;;3.97;;
32641;SDS011;19323;56.072;9.698;2022-12-18T01:49:54;3.65;;;3.30;;
32641;SDS011;19323;56.072;9.698;2022-12-18T01:52:21;3.65;;;3.35;;
32641;SDS011;19323;56.072;9.698;2022-12-18T01:54:49;4.18;;;3.75;;
32641;SDS011;19323;56.072;9.698;2022-12-18T01:57:16;5.57;;;3.60;;
32641;SDS011;19323;56.072;9.698;2022-12-18T01:59:41;5.50;;;3.67;;
32641;SDS011;19323;56.072;9.698;2022-12-18T02:02:10;4.05;;;3.70;;
32641;SDS011;19323;56.072;9.698;2022-12-18T02:04:36;3.60;;;3.30;;
32641;SDS011;19323;56.072;9.698;2022-12-18T02:09:45;4.53;;;3.05;;
32641;SDS011;19323;56.072;9.698;2022-12-18T02:12:15;3.63;;;3.33;;
32641;SDS011;19323;56.072;9.698;2022-12-18T02:14:46;3.40;;;3.03;;
32641;SDS011;19323;56.072;9.698;2022-12-18T02:17:22;3.25;;;2.95;;
32641;SDS011;19323;56.072;9.698;2022-12-18T02:20:13;3.47;;;3.17;;
32641;SDS011;19323;56.072;9.698;2022-12-18T02:25:40;3.42;;;3.13;;
32641;SDS011;19323;56.072;9.698;2022-12-18T02:28:26;4.65;;;3.33;;
32641;SDS011;19323;56.072;9.698;2022-12-18T02:30:56;3.03;;;2.70;;
32641;SDS011;19323;56.072;9.698;2022-12-18T02:33:26;3.17;;;2.88;;
32641;SDS011;19323;56.072;9.698;2022-12-18T02:35:54;3.30;;;3.00;;
32641;SDS011;19323;56.072;9.698;2022-12-18T02:38:21;5.00;;;3.50;;
32641;SDS011;19323;56.072;9.698;2022-12-18T02:40:48;2.95;;;2.75;;
32641;SDS011;19323;56.072;9.698;2022-12-18T02:43:16;3.20;;;2.90;;
32641;SDS011;19323;56.072;9.698;2022-12-18T02:45:49;3.55;;;3.17;;
32641;SDS011;19323;56.072;9.698;2022-12-18T02:48:18;3.05;;;2.72;;
32641;SDS011;19323;56.072;9.698;2022-12-18T02:50:52;2.60;;;2.40;;
32641;SDS011;19323;56.072;9.698;2022-12-18T02:53:31;2.95;;;2.72;;
32641;SDS011;19323;56.072;9.698;2022-12-18T03:04:25;2.70;;;2.50;;
32641;SDS011;19323;56.072;9.698;2022-12-18T03:06:55;3.63;;;3.00;;
32641;SDS011;19323;56.072;9.698;2022-12-18T03:09:30;2.50;;;2.30;;
32641;SDS011;19323;56.072;9.698;2022-12-18T03:12:06;2.65;;;2.45;;
32641;SDS011;19323;56.072;9.698;2022-12-18T03:17:29;2.90;;;2.50;;
32641;SDS011;19323;56.072;9.698;2022-12-18T03:19:58;2.40;;;2.20;;
32641;SDS011;19323;56.072;9.698;2022-12-18T03:22:29;2.78;;;2.50;;
32641;SDS011;19323;56.072;9.698;2022-12-18T03:24:57;2.42;;;2.20;;
32641;SDS011;19323;56.072;9.698;2022-12-18T03:27:25;2.40;;;2.20;;
32641;SDS011;19323;56.072;9.698;2022-12-18T03:29:56;2.67;;;2.35;;
32641;SDS011;19323;56.072;9.698;2022-12-18T03:32:32;2.42;;;2.22;;
32641;SDS011;19323;56.072;9.698;2022-12-18T03:35:04;2.47;;;2.28;;
32641;SDS011;19323;56.072;9.698;2022-12-18T03:37:32;2.13;;;1.90;;
32641;SDS011;19323;56.072;9.698;2022-12-18T03:39:57;2.75;;;2.55;;
32641;SDS011;19323;56.072;9.698;2022-12-18T03:42:30;2.65;;;2.45;;
32641;SDS011;19323;56.072;9.698;2022-12-18T03:47:57;2.50;;;2.30;;
32641;SDS011;19323;56.072;9.698;2022-12-18T03:50:29;2.17;;;1.98;;
32641;SDS011;19323;56.072;9.698;2022-12-18T03:53:35;2.80;;;2.50;;
32641;SDS011;19323;56.072;9.698;2022-12-18T03:56:07;2.28;;;2.08;;
32641;SDS011;19323;56.072;9.698;2022-12-18T03:58:34;2.42;;;2.22;;
32641;SDS011;19323;56.072;9.698;2022-12-18T04:01:03;2.85;;;2.30;;
32641;SDS011;19323;56.072;9.698;2022-12-18T04:03:36;2.45;;;2.25;;
32641;SDS011;19323;56.072;9.698;2022-12-18T04:06:02;2.53;;;2.33;;
32641;SDS011;19323;56.072;9.698;2022-12-18T04:08:29;2.05;;;1.85;;
32641;SDS011;19323;56.072;9.698;2022-12-18T04:10:54;2.60;;;2.40;;
32641;SDS011;19323;56.072;9.698;2022-12-18T04:13:29;2.20;;;2.00;;
32641;SDS011;19323;56.072;9.698;2022-12-18T04:15:58;2.42;;;2.15;;
32641;SDS011;19323;56.072;9.698;2022-12-18T04:18:23;2.38;;;2.17;;
32641;SDS011;19323;56.072;9.698;2022-12-18T04:20:48;2.38;;;2.05;;
32641;SDS011;19323;56.072;9.698;2022-12-18T04:23:13;2.40;;;2.20;;
32641;SDS011;19323;56.072;9.698;2022-12-18T04:25:38;2.92;;;1.98;;
32641;SDS011;19323;56.072;9.698;2022-12-18T04:28:04;4.15;;;2.88;;
32641;SDS011;19323;56.072;9.698;2022-12-18T04:30:30;3.28;;;2.17;;
32641;SDS011;19323;56.072;9.698;2022-12-18T04:32:55;14.77;;;2.58;;
32641;SDS011;19323;56.072;9.698;2022-12-18T04:35:20;9.10;;;2.17;;
32641;SDS011;19323;56.072;9.698;2022-12-18T04:37:45;2.45;;;2.08;;
32641;SDS011;19323;56.072;9.698;2022-12-18T04:40:11;4.68;;;2.28;;
32641;SDS011;19323;56.072;9.698;2022-12-18T04:42:36;3.90;;;2.47;;
32641;SDS011;19323;56.072;9.698;2022-12-18T04:45:02;2.20;;;2.00;;
32641;SDS011;19323;56.072;9.698;2022-12-18T04:47:27;2.22;;;2.03;;
32641;SDS011;19323;56.072;9.698;2022-12-18T04:49:53;3.40;;;2.50;;
32641;SDS011;19323;56.072;9.698;2022-12-18T04:52:18;3.63;;;2.33;;
32641;SDS011;19323;56.072;9.698;2022-12-18T04:54:43;4.82;;;2.25;;
32641;SDS011;19323;56.072;9.698;2022-12-18T04:57:09;2.40;;;2.20;;
32641;SDS011;19323;56.072;9.698;2022-12-18T04:59:34;4.25;;;2.38;;
32641;SDS011;19323;56.072;9.698;2022-12-18T05:01:59;2.78;;;2.00;;
32641;SDS011;19323;56.072;9.698;2022-12-18T05:04:25;2.42;;;2.22;;
32641;SDS011;19323;56.072;9.698;2022-12-18T05:06:50;2.08;;;1.88;;
32641;SDS011;19323;56.072;9.698;2022-12-18T05:09:15;4.30;;;2.22;;
32641;SDS011;19323;56.072;9.698;2022-12-18T05:11:40;2.30;;;2.10;;
32641;SDS011;19323;56.072;9.698;2022-12-18T05:14:07;2.35;;;2.00;;
32641;SDS011;19323;56.072;9.698;2022-12-18T05:16:32;2.85;;;2.45;;
32641;SDS011;19323;56.072;9.698;2022-12-18T05:18:57;3.35;;;2.25;;
32641;SDS011;19323;56.072;9.698;2022-12-18T05:21:23;3.22;;;2.22;;
32641;SDS011;19323;56.072;9.698;2022-12-18T05:23:48;6.03;;;2.28;;
32641;SDS011;19323;56.072;9.698;2022-12-18T05:26:15;11.18;;;2.42;;
32641;SDS011;19323;56.072;9.698;2022-12-18T05:28:42;2.90;;;2.28;;
32641;SDS011;19323;56.072;9.698;2022-12-18T05:31:09;4.05;;;2.13;;
32641;SDS011;19323;56.072;9.698;2022-12-18T05:33:34;2.40;;;2.10;;
32641;SDS011;19323;56.072;9.698;2022-12-18T05:36:04;3.45;;;2.25;;
32641;SDS011;19323;56.072;9.698;2022-12-18T05:38:32;5.00;;;2.10;;
32641;SDS011;19323;56.072;9.698;2022-12-18T05:40:59;12.55;;;3.15;;
32641;SDS011;19323;56.072;9.698;2022-12-18T05:43:25;8.07;;;3.65;;
32641;SDS011;19323;56.072;9.698;2022-12-18T05:45:51;4.90;;;3.05;;
32641;SDS011;19323;56.072;9.698;2022-12-18T05:48:18;4.22;;;2.70;;
32641;SDS011;19323;56.072;9.698;2022-12-18T05:50:44;5.22;;;2.75;;
32641;SDS011;19323;56.072;9.698;2022-12-18T05:53:10;4.65;;;2.78;;
32641;SDS011;19323;56.072;9.698;2022-12-18T05:55:38;4.60;;;2.65;;
32641;SDS011;19323;56.072;9.698;2022-12-18T05:58:05;7.38;;;2.65;;
32641;SDS011;19323;56.072;9.698;2022-12-18T06:00:31;5.82;;;2.83;;
32641;SDS011;19323;56.072;9.698;2022-12-18T06:02:57;8.95;;;3.08;;
32641;SDS011;19323;56.072;9.698;2022-12-18T06:05:23;7.25;;;3.10;;
32641;SDS011;19323;56.072;9.698;2022-12-18T06:07:49;3.92;;;2.78;;
32641;SDS011;19323;56.072;9.698;2022-12-18T06:10:14;3.67;;;2.28;;
32641;SDS011;19323;56.072;9.698;2022-12-18T06:12:39;6.57;;;3.50;;
32641;SDS011;19323;56.072;9.698;2022-12-18T06:15:05;5.40;;;2.63;;
32641;SDS011;19323;56.072;9.698;2022-12-18T06:17:31;8.77;;;2.33;;
32641;SDS011;19323;56.072;9.698;2022-12-18T06:19:57;5.90;;;3.28;;
32641;SDS011;19323;56.072;9.698;2022-12-18T06:22:22;2.45;;;2.25;;
32641;SDS011;19323;56.072;9.698;2022-12-18T06:24:48;4.20;;;2.13;;
32641;SDS011;19323;56.072;9.698;2022-12-18T06:27:13;5.40;;;3.13;;
32641;SDS011;19323;56.072;9.698;2022-12-18T06:29:38;3.08;;;2.38;;
32641;SDS011;19323;56.072;9.698;2022-12-18T06:32:04;3.90;;;2.42;;
32641;SDS011;19323;56.072;9.698;2022-12-18T06:34:29;2.50;;;2.30;;
32641;SDS011;19323;56.072;9.698;2022-12-18T06:36:57;5.93;;;2.75;;
32641;SDS011;19323;56.072;9.698;2022-12-18T06:39:22;4.32;;;2.55;;
32641;SDS011;19323;56.072;9.698;2022-12-18T06:41:47;7.95;;;2.67;;
32641;SDS011;19323;56.072;9.698;2022-12-18T06:44:13;5.05;;;2.60;;
32641;SDS011;19323;56.072;9.698;2022-12-18T06:46:38;2.50;;;2.30;;
32641;SDS011;19323;56.072;9.698;2022-12-18T06:49:03;2.65;;;2.45;;
32641;SDS011;19323;56.072;9.698;2022-12-18T06:51:29;4.35;;;2.45;;
32641;SDS011;19323;56.072;9.698;2022-12-18T06:53:54;3.67;;;2.75;;
32641;SDS011;19323;56.072;9.698;2022-12-18T06:56:19;3.05;;;2.75;;
32641;SDS011;19323;56.072;9.698;2022-12-18T06:58:44;4.20;;;2.42;;
32641;SDS011;19323;56.072;9.698;2022-12-18T07:01:10;3.35;;;2.20;;
32641;SDS011;19323;56.072;9.698;2022-12-18T07:03:40;2.33;;;2.13;;
32641;SDS011;19323;56.072;9.698;2022-12-18T07:06:06;2.35;;;2.10;;
32641;SDS011;19323;56.072;9.698;2022-12-18T07:08:39;2.58;;;2.33;;
32641;SDS011;19323;56.072;9.698;2022-12-18T07:11:04;3.75;;;2.50;;
32641;SDS011;19323;56.072;9.698;2022-12-18T07:13:30;5.10;;;2.70;;
32641;SDS011;19323;56.072;9.698;2022-12-18T07:15:55;5.72;;;2.17;;
32641;SDS011;19323;56.072;9.698;2022-12-18T07:18:20;4.93;;;2.42;;
32641;SDS011;19323;56.072;9.698;2022-12-18T07:20:46;4.15;;;2.90;;
32641;SDS011;19323;56.072;9.698;2022-12-18T07:23:11;4.10;;;2.78;;
32641;SDS011;19323;56.072;9.698;2022-12-18T07:25:36;4.32;;;2.40;;
32641;SDS011;19323;56.072;9.698;2022-12-18T07:28:02;3.75;;;2.67;;
32641;SDS011;19323;56.072;9.698;2022-12-18T07:30:28;5.05;;;2.58;;
32641;SDS011;19323;56.072;9.698;2022-12-18T07:32:53;3.03;;;2.65;;
32641;SDS011;19323;56.072;9.698;2022-12-18T07:35:19;3.75;;;2.85;;
32641;SDS011;19323;56.072;9.698;2022-12-18T07:37:44;9.73;;;2.83;;
32641;SDS011;19323;56.072;9.698;2022-12-18T07:40:09;4.13;;;2.63;;
32641;SDS011;19323;56.072;9.698;2022-12-18T07:42:35;2.95;;;2.50;;
32641;SDS011;19323;56.072;9.698;2022-12-18T07:45:01;3.75;;;3.28;;
32641;SDS011;19323;56.072;9.698;2022-12-18T07:47:27;3.15;;;2.53;;
32641;SDS011;19323;56.072;9.698;2022-12-18T07:49:56;3.30;;;2.65;;
32641;SDS011;19323;56.072;9.698;2022-12-18T07:52:21;5.00;;;3.28;;
32641;SDS011;19323;56.072;9.698;2022-12-18T07:54:46;7.30;;;3.03;;
32641;SDS011;19323;56.072;9.698;2022-12-18T07:57:14;4.22;;;3.28;;
32641;SDS011;19323;56.072;9.698;2022-12-18T07:59:39;4.15;;;2.67;;
32641;SDS011;19323;56.072;9.698;2022-12-18T08:02:04;4.43;;;3.00;;
32641;SDS011;19323;56.072;9.698;2022-12-18T08:04:29;3.45;;;3.15;;
32641;SDS011;19323;56.072;9.698;2022-12-18T08:06:55;6.22;;;3.10;;
32641;SDS011;19323;56.072;9.698;2022-12-18T08:09:20;5.18;;;3.67;;
32641;SDS011;19323;56.072;9.698;2022-12-18T08:11:45;4.45;;;3.50;;
32641;SDS011;19323;56.072;9.698;2022-12-18T08:14:10;7.32;;;3.28;;
32641;SDS011;19323;56.072;9.698;2022-12-18T08:16:36;4.70;;;2.92;;
32641;SDS011;19323;56.072;9.698;2022-12-18T08:19:01;3.97;;;3.33;;
32641;SDS011;19323;56.072;9.698;2022-12-18T08:21:27;3.47;;;3.15;;
32641;SDS011;19323;56.072;9.698;2022-12-18T08:23:56;2.65;;;2.45;;
32641;SDS011;19323;56.072;9.698;2022-12-18T08:26:23;3.15;;;2.85;;
32641;SDS011;19323;56.072;9.698;2022-12-18T08:28:51;3.58;;;3.25;;
32641;SDS011;19323;56.072;9.698;2022-12-18T08:31:18;4.22;;;3.08;;
32641;SDS011;19323;56.072;9.698;2022-12-18T08:33:44;5.30;;;3.28;;
32641;SDS011;19323;56.072;9.698;2022-12-18T08:36:09;6.55;;;3.47;;
32641;SDS011;19323;56.072;9.698;2022-12-18T08:38:35;4.25;;;3.72;;
32641;SDS011;19323;56.072;9.698;2022-12-18T08:41:01;5.78;;;3.22;;
32641;SDS011;19323;56.072;9.698;2022-12-18T08:43:31;4.75;;;3.15;;
32641;SDS011;19323;56.072;9.698;2022-12-18T08:46:15;5.00;;;3.38;;
32641;SDS011;19323;56.072;9.698;2022-12-18T08:48:41;4.18;;;3.65;;
32641;SDS011;19323;56.072;9.698;2022-12-18T08:51:07;4.05;;;3.38;;
32641;SDS011;19323;56.072;9.698;2022-12-18T08:53:34;3.70;;;3.22;;
32641;SDS011;19323;56.072;9.698;2022-12-18T08:56:00;7.60;;;4.72;;
32641;SDS011;19323;56.072;9.698;2022-12-18T08:58:25;4.10;;;3.75;;
32641;SDS011;19323;56.072;9.698;2022-12-18T09:00:50;6.32;;;3.80;;
32641;SDS011;19323;56.072;9.698;2022-12-18T09:03:16;5.05;;;3.53;;
32641;SDS011;19323;56.072;9.698;2022-12-18T09:05:43;6.35;;;4.10;;
32641;SDS011;19323;56.072;9.698;2022-12-18T09:08:10;4.38;;;3.70;;
32641;SDS011;19323;56.072;9.698;2022-12-18T09:10:41;9.30;;;4.25;;
32641;SDS011;19323;56.072;9.698;2022-12-18T09:13:07;8.15;;;3.80;;
32641;SDS011;19323;56.072;9.698;2022-12-18T09:15:32;7.47;;;4.43;;
32641;SDS011;19323;56.072;9.698;2022-12-18T09:17:57;4.40;;;4.00;;
32641;SDS011;19323;56.072;9.698;2022-12-18T09:20:23;5.85;;;4.75;;
32641;SDS011;19323;56.072;9.698;2022-12-18T09:22:49;7.03;;;3.88;;
32641;SDS011;19323;56.072;9.698;2022-12-18T09:25:14;5.65;;;3.90;;
32641;SDS011;19323;56.072;9.698;2022-12-18T09:27:39;4.57;;;3.60;;
32641;SDS011;19323;56.072;9.698;2022-12-18T09:30:05;4.50;;;3.88;;
32641;SDS011;19323;56.072;9.698;2022-12-18T09:32:31;4.07;;;3.67;;
32641;SDS011;19323;56.072;9.698;2022-12-18T09:34:56;6.32;;;3.95;;
32641;SDS011;19323;56.072;9.698;2022-12-18T09:37:21;4.30;;;3.55;;
32641;SDS011;19323;56.072;9.698;2022-12-18T09:39:46;5.43;;;3.85;;
32641;SDS011;19323;56.072;9.698;2022-12-18T09:42:20;4.32;;;3.80;;
32641;SDS011;19323;56.072;9.698;2022-12-18T09:44:49;4.68;;;3.40;;
32641;SDS011;19323;56.072;9.698;2022-12-18T09:47:17;4.53;;;4.00;;
32641;SDS011;19323;56.072;9.698;2022-12-18T09:49:49;7.20;;;4.07;;
32641;SDS011;19323;56.072;9.698;2022-12-18T09:52:28;3.42;;;3.13;;
32641;SDS011;19323;56.072;9.698;2022-12-18T09:55:00;5.18;;;4.10;;
32641;SDS011;19323;56.072;9.698;2022-12-18T09:57:30;4.80;;;3.63;;
32641;SDS011;19323;56.072;9.698;2022-12-18T09:59:59;4.32;;;3.72;;
32641;SDS011;19323;56.072;9.698;2022-12-18T10:02:30;4.07;;;3.65;;
32641;SDS011;19323;56.072;9.698;2022-12-18T10:05:13;4.18;;;3.65;;
32641;SDS011;19323;56.072;9.698;2022-12-18T10:10:34;4.90;;;4.25;;
32641;SDS011;19323;56.072;9.698;2022-12-18T10:13:26;3.85;;;3.55;;
32641;SDS011;19323;56.072;9.698;2022-12-18T10:21:34;4.80;;;3.90;;
32641;SDS011;19323;56.072;9.698;2022-12-18T10:24:24;5.47;;;3.90;;
32641;SDS011;19323;56.072;9.698;2022-12-18T10:26:58;8.15;;;4.30;;
32641;SDS011;19323;56.072;9.698;2022-12-18T10:29:35;4.53;;;4.13;;
32641;SDS011;19323;56.072;9.698;2022-12-18T10:32:01;4.30;;;4.00;;
32641;SDS011;19323;56.072;9.698;2022-12-18T10:34:26;4.28;;;3.72;;
32641;SDS011;19323;56.072;9.698;2022-12-18T10:36:51;6.13;;;4.63;;
32641;SDS011;19323;56.072;9.698;2022-12-18T10:39:18;6.70;;;4.70;;
32641;SDS011;19323;56.072;9.698;2022-12-18T10:41:50;5.93;;;3.90;;
32641;SDS011;19323;56.072;9.698;2022-12-18T10:44:22;4.75;;;4.35;;
32641;SDS011;19323;56.072;9.698;2022-12-18T10:46:55;5.68;;;4.30;;
32641;SDS011;19323;56.072;9.698;2022-12-18T10:49:29;5.97;;;4.63;;
32641;SDS011;19323;56.072;9.698;2022-12-18T10:54:46;4.75;;;4.32;;
32641;SDS011;19323;56.072;9.698;2022-12-18T11:02:25;5.65;;;4.07;;
32641;SDS011;19323;56.072;9.698;2022-12-18T11:04:52;7.35;;;4.35;;
32641;SDS011;19323;56.072;9.698;2022-12-18T11:07:18;5.20;;;4.18;;
32641;SDS011;19323;56.072;9.698;2022-12-18T11:09:43;4.53;;;3.95;;
32641;SDS011;19323;56.072;9.698;2022-12-18T11:12:29;5.32;;;4.82;;
32641;SDS011;19323;56.072;9.698;2022-12-18T11:14:57;7.68;;;4.57;;
32641;SDS011;19323;56.072;9.698;2022-12-18T11:17:28;4.75;;;4.15;;
32641;SDS011;19323;56.072;9.698;2022-12-18T11:19:56;8.77;;;4.57;;
32641;SDS011;19323;56.072;9.698;2022-12-18T11:27:24;5.60;;;4.25;;
32641;SDS011;19323;56.072;9.698;2022-12-18T11:29:50;7.90;;;4.38;;
32641;SDS011;19323;56.072;9.698;2022-12-18T11:32:35;8.93;;;4.25;;
32641;SDS011;19323;56.072;9.698;2022-12-18T11:38:23;8.60;;;4.70;;
32641;SDS011;19323;56.072;9.698;2022-12-18T11:46:39;6.97;;;4.47;;
32641;SDS011;19323;56.072;9.698;2022-12-18T11:49:19;11.32;;;5.10;;
32641;SDS011;19323;56.072;9.698;2022-12-18T11:51:53;7.45;;;4.88;;
32641;SDS011;19323;56.072;9.698;2022-12-18T11:54:23;9.85;;;4.72;;
32641;SDS011;19323;56.072;9.698;2022-12-18T11:56:50;5.75;;;4.65;;
32641;SDS011;19323;56.072;9.698;2022-12-18T11:59:24;7.38;;;5.15;;
32641;SDS011;19323;56.072;9.698;2022-12-18T12:02:12;4.88;;;4.10;;
32641;SDS011;19323;56.072;9.698;2022-12-18T12:05:04;5.47;;;4.95;;
32641;SDS011;19323;56.072;9.698;2022-12-18T12:10:18;6.82;;;4.93;;
32641;SDS011;19323;56.072;9.698;2022-12-18T12:18:36;8.82;;;6.05;;
32641;SDS011;19323;56.072;9.698;2022-12-18T12:29:30;6.15;;;5.38;;
32641;SDS011;19323;56.072;9.698;2022-12-18T12:35:09;7.20;;;6.03;;
32641;SDS011;19323;56.072;9.698;2022-12-18T12:40:30;7.20;;;5.18;;
32641;SDS011;19323;56.072;9.698;2022-12-18T12:43:01;6.95;;;5.20;;
32641;SDS011;19323;56.072;9.698;2022-12-18T12:45:43;8.00;;;4.95;;
32641;SDS011;19323;56.072;9.698;2022-12-18T12:48:15;8.27;;;5.45;;
32641;SDS011;19323;56.072;9.698;2022-12-18T12:50:44;7.45;;;5.18;;
32641;SDS011;19323;56.072;9.698;2022-12-18T12:53:14;7.35;;;5.43;;
32641;SDS011;19323;56.072;9.698;2022-12-18T12:55:46;8.60;;;4.97;;
32641;SDS011;19323;56.072;9.698;2022-12-18T12:58:14;11.90;;;5.30;;
32641;SDS011;19323;56.072;9.698;2022-12-18T13:01:04;6.10;;;5.50;;
32641;SDS011;19323;56.072;9.698;2022-12-18T13:06:47;9.93;;;5.93;;
32641;SDS011;19323;56.072;9.698;2022-12-18T13:09:20;5.95;;;5.20;;
32641;SDS011;19323;56.072;9.698;2022-12-18T13:11:46;10.57;;;5.32;;
32641;SDS011;19323;56.072;9.698;2022-12-18T13:14:32;12.13;;;5.47;;
32641;SDS011;19323;56.072;9.698;2022-12-18T13:22:38;10.07;;;6.40;;
32641;SDS011;19323;56.072;9.698;2022-12-18T13:25:26;12.32;;;7.55;;
32641;SDS011;19323;56.072;9.698;2022-12-18T13:28:03;14.23;;;6.05;;
32641;SDS011;19323;56.072;9.698;2022-12-18T13:35:51;10.95;;;6.63;;
32641;SDS011;19323;56.072;9.698;2022-12-18T13:38:20;9.98;;;6.78;;
32641;SDS011;19323;56.072;9.698;2022-12-18T13:40:56;12.00;;;5.97;;
32641;SDS011;19323;56.072;9.698;2022-12-18T13:43:42;8.73;;;5.88;;
32641;SDS011;19323;56.072;9.698;2022-12-18T13:51:34;10.05;;;6.90;;
32641;SDS011;19323;56.072;9.698;2022-12-18T13:54:01;10.98;;;6.78;;
32641;SDS011;19323;56.072;9.698;2022-12-18T13:56:45;10.80;;;6.82;;
32641;SDS011;19323;56.072;9.698;2022-12-18T13:59:13;11.25;;;6.47;;
32641;SDS011;19323;56.072;9.698;2022-12-18T14:04:22;9.80;;;6.55;;
32641;SDS011;19323;56.072;9.698;2022-12-18T14:07:01;13.05;;;7.38;;
32641;SDS011;19323;56.072;9.698;2022-12-18T14:09:30;9.75;;;6.68;;
32641;SDS011;19323;56.072;9.698;2022-12-18T14:11:59;10.25;;;6.97;;
32641;SDS011;19323;56.072;9.698;2022-12-18T14:14:45;11.48;;;6.38;;
32641;SDS011;19323;56.072;9.698;2022-12-18T14:17:12;10.48;;;6.05;;
32641;SDS011;19323;56.072;9.698;2022-12-18T14:19:45;12.48;;;7.03;;
32641;SDS011;19323;56.072;9.698;2022-12-18T14:22:17;11.45;;;6.65;;
32641;SDS011;19323;56.072;9.698;2022-12-18T14:24:44;9.30;;;6.25;;
32641;SDS011;19323;56.072;9.698;2022-12-18T14:27:20;9.63;;;6.65;;
32641;SDS011;19323;56.072;9.698;2022-12-18T14:29:48;15.02;;;5.90;;
32641;SDS011;19323;56.072;9.698;2022-12-18T14:32:14;13.13;;;6.47;;
32641;SDS011;19323;56.072;9.698;2022-12-18T14:34:45;7.55;;;6.13;;
32641;SDS011;19323;56.072;9.698;2022-12-18T14:37:10;9.75;;;6.18;;
32641;SDS011;19323;56.072;9.698;2022-12-18T14:39:38;9.15;;;6.25;;
32641;SDS011;19323;56.072;9.698;2022-12-18T14:42:03;13.88;;;6.28;;
32641;SDS011;19323;56.072;9.698;2022-12-18T14:44:29;8.77;;;6.32;;
32641;SDS011;19323;56.072;9.698;2022-12-18T14:46:54;6.32;;;5.50;;
32641;SDS011;19323;56.072;9.698;2022-12-18T14:51:55;12.05;;;7.10;;
32641;SDS011;19323;56.072;9.698;2022-12-18T14:54:25;8.35;;;5.80;;
32641;SDS011;19323;56.072;9.698;2022-12-18T14:57:17;7.47;;;6.15;;
32641;SDS011;19323;56.072;9.698;2022-12-18T14:59:47;8.07;;;6.32;;
32641;SDS011;19323;56.072;9.698;2022-12-18T15:02:16;16.75;;;6.72;;
32641;SDS011;19323;56.072;9.698;2022-12-18T15:20:54;6.35;;;4.47;;
32641;SDS011;19323;56.072;9.698;2022-12-18T15:23:29;6.72;;;5.40;;
32641;SDS011;19323;56.072;9.698;2022-12-18T15:25:56;8.50;;;6.05;;
32641;SDS011;19323;56.072;9.698;2022-12-18T15:28:25;6.25;;;5.65;;
32641;SDS011;19323;56.072;9.698;2022-12-18T15:31:01;7.38;;;5.55;;
32641;SDS011;19323;56.072;9.698;2022-12-18T15:33:29;6.35;;;5.75;;
32641;SDS011;19323;56.072;9.698;2022-12-18T15:36:01;5.97;;;5.43;;
32641;SDS011;19323;56.072;9.698;2022-12-18T15:38:33;5.88;;;4.97;;
32641;SDS011;19323;56.072;9.698;2022-12-18T15:40:59;6.63;;;5.25;;
32641;SDS011;19323;56.072;9.698;2022-12-18T15:43:24;7.82;;;5.68;;
32641;SDS011;19323;56.072;9.698;2022-12-18T15:48:32;5.30;;;4.68;;
32641;SDS011;19323;56.072;9.698;2022-12-18T15:50:59;5.72;;;5.13;;
32641;SDS011;19323;56.072;9.698;2022-12-18T15:53:25;6.70;;;5.00;;
32641;SDS011;19323;56.072;9.698;2022-12-18T15:55:54;7.22;;;5.13;;
32641;SDS011;19323;56.072;9.698;2022-12-18T15:58:37;5.85;;;5.10;;
32641;SDS011;19323;56.072;9.698;2022-12-18T16:01:03;6.07;;;5.53;;
32641;SDS011;19323;56.072;9.698;2022-12-18T16:03:28;10.48;;;7.40;;
32641;SDS011;19323;56.072;9.698;2022-12-18T16:05:54;11.57;;;8.48;;
32641;SDS011;19323;56.072;9.698;2022-12-18T16:08:19;18.55;;;9.50;;
32641;SDS011;19323;56.072;9.698;2022-12-18T16:10:44;24.63;;;11.43;;
32641;SDS011;19323;56.072;9.698;2022-12-18T16:13:10;17.20;;;11.18;;
32641;SDS011;19323;56.072;9.698;2022-12-18T16:15:36;32.40;;;16.33;;
32641;SDS011;19323;56.072;9.698;2022-12-18T16:18:01;24.30;;;14.48;;
32641;SDS011;19323;56.072;9.698;2022-12-18T16:20:27;30.70;;;14.98;;
32641;SDS011;19323;56.072;9.698;2022-12-18T16:22:52;27.00;;;15.05;;
32641;SDS011;19323;56.072;9.698;2022-12-18T16:25:21;27.40;;;15.50;;
32641;SDS011;19323;56.072;9.698;2022-12-18T16:27:49;34.42;;;16.52;;
32641;SDS011;19323;56.072;9.698;2022-12-18T16:30:16;32.75;;;16.88;;
32641;SDS011;19323;56.072;9.698;2022-12-18T16:32:43;50.88;;;18.73;;
32641;SDS011;19323;56.072;9.698;2022-12-18T16:35:10;35.72;;;17.58;;
32641;SDS011;19323;56.072;9.698;2022-12-18T16:37:39;39.42;;;17.23;;
32641;SDS011;19323;56.072;9.698;2022-12-18T16:40:06;37.50;;;16.35;;
32641;SDS011;19323;56.072;9.698;2022-12-18T16:42:34;29.88;;;15.43;;
32641;SDS011;19323;56.072;9.698;2022-12-18T16:45:00;39.05;;;17.05;;
32641;SDS011;19323;56.072;9.698;2022-12-18T16:47:25;33.40;;;15.70;;
32641;SDS011;19323;56.072;9.698;2022-12-18T16:49:51;35.35;;;15.70;;
32641;SDS011;19323;56.072;9.698;2022-12-18T16:52:17;27.15;;;15.50;;
32641;SDS011;19323;56.072;9.698;2022-12-18T16:54:43;30.48;;;14.07;;